sensor_id;sensor_type;location;lat;lon;timestamp;P1;durP1;ratioP1;P2;durP2;ratioP2
20322;SDS011;10319;52.206;20.996;2023-02-28T00:00:32;16.07;;;4.53;;
20322;SDS011;10319;52.206;20.996;2023-02-28T00:02:57;15.33;;;4.20;;
20322;SDS011;10319;52.206;20.996;2023-02-28T00:05:23;15.87;;;4.00;;
20322;SDS011;10319;52.206;20.996;2023-02-28T00:07:50;13.67;;;3.90;;
20322;SDS011;10319;52.206;20.996;2023-02-28T00:12:45;14.83;;;3.77;;
20322;SDS011;10319;52.206;20.996;2023-02-28T00:15:11;17.73;;;4.20;;
20322;SDS011;10319;52.206;20.996;2023-02-28T00:17:36;14.93;;;4.33;;
20322;SDS011;10319;52.206;20.996;2023-02-28T00:20:01;13.47;;;3.60;;
20322;SDS011;10319;52.206;20.996;2023-02-28T00:22:27;14.07;;;3.50;;
20322;SDS011;10319;52.206;20.996;2023-02-28T00:24:52;14.43;;;3.80;;
20322;SDS011;10319;52.206;20.996;2023-02-28T00:27:18;15.00;;;4.00;;
20322;SDS011;10319;52.206;20.996;2023-02-28T00:29:43;15.33;;;3.90;;
20322;SDS011;10319;52.206;20.996;2023-02-28T00:32:08;16.57;;;4.37;;
20322;SDS011;10319;52.206;20.996;2023-02-28T00:34:33;13.00;;;3.70;;
20322;SDS011;10319;52.206;20.996;2023-02-28T00:37:03;13.03;;;3.40;;
20322;SDS011;10319;52.206;20.996;2023-02-28T00:39:28;15.93;;;4.27;;
20322;SDS011;10319;52.206;20.996;2023-02-28T00:41:53;14.93;;;3.90;;
20322;SDS011;10319;52.206;20.996;2023-02-28T00:44:18;14.73;;;4.10;;
20322;SDS011;10319;52.206;20.996;2023-02-28T00:46:46;16.83;;;4.53;;
20322;SDS011;10319;52.206;20.996;2023-02-28T00:49:11;16.73;;;4.37;;
20322;SDS011;10319;52.206;20.996;2023-02-28T00:51:36;14.13;;;3.87;;
20322;SDS011;10319;52.206;20.996;2023-02-28T00:54:02;15.43;;;4.10;;
20322;SDS011;10319;52.206;20.996;2023-02-28T00:56:27;16.00;;;4.40;;
20322;SDS011;10319;52.206;20.996;2023-02-28T00:58:52;15.37;;;4.10;;
20322;SDS011;10319;52.206;20.996;2023-02-28T01:01:18;15.67;;;4.17;;
20322;SDS011;10319;52.206;20.996;2023-02-28T01:03:43;14.03;;;3.70;;
20322;SDS011;10319;52.206;20.996;2023-02-28T01:06:08;16.80;;;4.13;;
20322;SDS011;10319;52.206;20.996;2023-02-28T01:08:33;16.47;;;4.63;;
20322;SDS011;10319;52.206;20.996;2023-02-28T01:11:06;14.87;;;5.07;;
20322;SDS011;10319;52.206;20.996;2023-02-28T01:13:31;16.97;;;4.70;;
20322;SDS011;10319;52.206;20.996;2023-02-28T01:15:57;15.70;;;5.07;;
20322;SDS011;10319;52.206;20.996;2023-02-28T01:18:22;16.27;;;4.57;;
20322;SDS011;10319;52.206;20.996;2023-02-28T01:20:48;16.17;;;4.40;;
20322;SDS011;10319;52.206;20.996;2023-02-28T01:23:13;19.43;;;5.07;;
20322;SDS011;10319;52.206;20.996;2023-02-28T01:25:38;18.53;;;4.80;;
20322;SDS011;10319;52.206;20.996;2023-02-28T01:28:04;15.87;;;4.57;;
20322;SDS011;10319;52.206;20.996;2023-02-28T01:30:30;18.67;;;4.60;;
20322;SDS011;10319;52.206;20.996;2023-02-28T01:32:56;15.93;;;4.13;;
20322;SDS011;10319;52.206;20.996;2023-02-28T01:35:21;18.63;;;5.33;;
20322;SDS011;10319;52.206;20.996;2023-02-28T01:37:46;18.43;;;4.80;;
20322;SDS011;10319;52.206;20.996;2023-02-28T01:40:12;15.27;;;4.50;;
20322;SDS011;10319;52.206;20.996;2023-02-28T01:42:37;16.40;;;4.60;;
20322;SDS011;10319;52.206;20.996;2023-02-28T01:45:04;16.50;;;4.97;;
20322;SDS011;10319;52.206;20.996;2023-02-28T01:47:38;17.50;;;5.10;;
20322;SDS011;10319;52.206;20.996;2023-02-28T01:50:07;16.27;;;4.27;;
20322;SDS011;10319;52.206;20.996;2023-02-28T01:52:34;16.93;;;4.83;;
20322;SDS011;10319;52.206;20.996;2023-02-28T01:55:00;18.47;;;4.63;;
20322;SDS011;10319;52.206;20.996;2023-02-28T01:57:36;15.93;;;4.90;;
20322;SDS011;10319;52.206;20.996;2023-02-28T02:00:04;17.47;;;5.20;;
20322;SDS011;10319;52.206;20.996;2023-02-28T02:02:32;16.60;;;4.30;;
20322;SDS011;10319;52.206;20.996;2023-02-28T02:04:59;20.17;;;4.90;;
20322;SDS011;10319;52.206;20.996;2023-02-28T02:07:29;17.73;;;4.93;;
20322;SDS011;10319;52.206;20.996;2023-02-28T02:10:29;15.40;;;4.00;;
20322;SDS011;10319;52.206;20.996;2023-02-28T02:15:20;15.07;;;4.30;;
20322;SDS011;10319;52.206;20.996;2023-02-28T02:17:50;16.57;;;4.70;;
20322;SDS011;10319;52.206;20.996;2023-02-28T02:20:38;15.17;;;4.07;;
20322;SDS011;10319;52.206;20.996;2023-02-28T02:23:26;16.83;;;4.53;;
20322;SDS011;10319;52.206;20.996;2023-02-28T02:43:48;14.77;;;4.30;;
20322;SDS011;10319;52.206;20.996;2023-02-28T02:46:37;14.67;;;4.00;;
20322;SDS011;10319;52.206;20.996;2023-02-28T02:49:00;17.00;;;4.30;;
20322;SDS011;10319;52.206;20.996;2023-02-28T02:51:27;14.80;;;4.03;;
20322;SDS011;10319;52.206;20.996;2023-02-28T02:54:02;15.20;;;4.40;;
20322;SDS011;10319;52.206;20.996;2023-02-28T02:56:31;14.07;;;3.83;;
20322;SDS011;10319;52.206;20.996;2023-02-28T02:58:58;14.33;;;3.83;;
20322;SDS011;10319;52.206;20.996;2023-02-28T03:01:25;16.60;;;4.73;;
20322;SDS011;10319;52.206;20.996;2023-02-28T03:03:57;16.13;;;4.30;;
20322;SDS011;10319;52.206;20.996;2023-02-28T03:06:23;15.63;;;4.23;;
20322;SDS011;10319;52.206;20.996;2023-02-28T03:08:48;14.77;;;4.20;;
20322;SDS011;10319;52.206;20.996;2023-02-28T03:11:14;15.07;;;4.20;;
20322;SDS011;10319;52.206;20.996;2023-02-28T03:21:34;13.67;;;3.90;;
20322;SDS011;10319;52.206;20.996;2023-02-28T03:24:16;15.80;;;4.07;;
20322;SDS011;10319;52.206;20.996;2023-02-28T03:26:43;16.23;;;4.20;;
20322;SDS011;10319;52.206;20.996;2023-02-28T03:29:20;14.10;;;3.70;;
20322;SDS011;10319;52.206;20.996;2023-02-28T03:31:54;14.10;;;3.63;;
20322;SDS011;10319;52.206;20.996;2023-02-28T03:34:24;14.80;;;3.93;;
20322;SDS011;10319;52.206;20.996;2023-02-28T03:36:52;15.27;;;4.27;;
20322;SDS011;10319;52.206;20.996;2023-02-28T03:41:46;15.77;;;4.60;;
20322;SDS011;10319;52.206;20.996;2023-02-28T03:44:16;16.13;;;4.53;;
20322;SDS011;10319;52.206;20.996;2023-02-28T03:46:48;16.10;;;4.73;;
20322;SDS011;10319;52.206;20.996;2023-02-28T03:49:16;15.90;;;4.30;;
20322;SDS011;10319;52.206;20.996;2023-02-28T03:51:42;16.77;;;4.60;;
20322;SDS011;10319;52.206;20.996;2023-02-28T03:54:09;14.87;;;4.17;;
20322;SDS011;10319;52.206;20.996;2023-02-28T03:57:20;15.60;;;4.40;;
20322;SDS011;10319;52.206;20.996;2023-02-28T03:59:30;13.67;;;3.77;;
20322;SDS011;10319;52.206;20.996;2023-02-28T04:01:58;16.07;;;4.43;;
20322;SDS011;10319;52.206;20.996;2023-02-28T04:04:23;13.43;;;3.90;;
20322;SDS011;10319;52.206;20.996;2023-02-28T04:06:49;15.10;;;4.00;;
20322;SDS011;10319;52.206;20.996;2023-02-28T04:09:14;16.77;;;4.17;;
20322;SDS011;10319;52.206;20.996;2023-02-28T04:11:40;16.30;;;4.33;;
20322;SDS011;10319;52.206;20.996;2023-02-28T04:14:06;14.40;;;3.90;;
20322;SDS011;10319;52.206;20.996;2023-02-28T04:16:33;13.97;;;3.70;;
20322;SDS011;10319;52.206;20.996;2023-02-28T04:18:58;14.80;;;4.33;;
20322;SDS011;10319;52.206;20.996;2023-02-28T04:21:37;16.20;;;4.13;;
20322;SDS011;10319;52.206;20.996;2023-02-28T04:24:04;14.57;;;4.03;;
20322;SDS011;10319;52.206;20.996;2023-02-28T04:26:30;16.07;;;4.30;;
20322;SDS011;10319;52.206;20.996;2023-02-28T04:28:56;13.73;;;4.07;;
20322;SDS011;10319;52.206;20.996;2023-02-28T04:31:21;14.17;;;3.90;;
20322;SDS011;10319;52.206;20.996;2023-02-28T04:33:46;14.93;;;4.33;;
20322;SDS011;10319;52.206;20.996;2023-02-28T04:36:11;15.80;;;4.30;;
20322;SDS011;10319;52.206;20.996;2023-02-28T04:38:38;14.50;;;4.23;;
20322;SDS011;10319;52.206;20.996;2023-02-28T04:41:04;15.53;;;4.37;;
20322;SDS011;10319;52.206;20.996;2023-02-28T04:43:30;14.40;;;4.50;;
20322;SDS011;10319;52.206;20.996;2023-02-28T04:45:56;16.47;;;4.80;;
20322;SDS011;10319;52.206;20.996;2023-02-28T04:48:25;15.50;;;4.50;;
20322;SDS011;10319;52.206;20.996;2023-02-28T04:50:51;15.70;;;4.37;;
20322;SDS011;10319;52.206;20.996;2023-02-28T04:53:16;16.23;;;4.70;;
20322;SDS011;10319;52.206;20.996;2023-02-28T04:55:42;16.03;;;4.67;;
20322;SDS011;10319;52.206;20.996;2023-02-28T04:58:07;15.03;;;4.33;;
20322;SDS011;10319;52.206;20.996;2023-02-28T05:00:32;16.63;;;4.27;;
20322;SDS011;10319;52.206;20.996;2023-02-28T05:02:57;14.73;;;4.17;;
20322;SDS011;10319;52.206;20.996;2023-02-28T05:05:23;14.87;;;4.07;;
20322;SDS011;10319;52.206;20.996;2023-02-28T05:07:48;16.93;;;4.70;;
20322;SDS011;10319;52.206;20.996;2023-02-28T05:10:13;14.17;;;3.60;;
20322;SDS011;10319;52.206;20.996;2023-02-28T05:12:38;16.87;;;4.77;;
20322;SDS011;10319;52.206;20.996;2023-02-28T05:15:04;15.97;;;4.33;;
20322;SDS011;10319;52.206;20.996;2023-02-28T05:17:30;14.93;;;4.23;;
20322;SDS011;10319;52.206;20.996;2023-02-28T05:19:55;14.80;;;4.23;;
20322;SDS011;10319;52.206;20.996;2023-02-28T05:22:20;15.20;;;4.53;;
20322;SDS011;10319;52.206;20.996;2023-02-28T05:24:45;15.17;;;4.33;;
20322;SDS011;10319;52.206;20.996;2023-02-28T05:27:11;13.93;;;4.10;;
20322;SDS011;10319;52.206;20.996;2023-02-28T05:29:36;14.23;;;4.40;;
20322;SDS011;10319;52.206;20.996;2023-02-28T05:32:08;14.47;;;4.30;;
20322;SDS011;10319;52.206;20.996;2023-02-28T05:34:33;14.67;;;4.20;;
20322;SDS011;10319;52.206;20.996;2023-02-28T05:36:58;13.80;;;4.00;;
20322;SDS011;10319;52.206;20.996;2023-02-28T05:39:24;15.77;;;4.13;;
20322;SDS011;10319;52.206;20.996;2023-02-28T05:41:49;15.40;;;4.20;;
20322;SDS011;10319;52.206;20.996;2023-02-28T05:44:14;14.47;;;4.20;;
20322;SDS011;10319;52.206;20.996;2023-02-28T05:46:40;14.57;;;4.07;;
20322;SDS011;10319;52.206;20.996;2023-02-28T05:49:20;15.57;;;4.40;;
20322;SDS011;10319;52.206;20.996;2023-02-28T05:51:45;15.30;;;4.33;;
20322;SDS011;10319;52.206;20.996;2023-02-28T05:54:11;17.57;;;4.57;;
20322;SDS011;10319;52.206;20.996;2023-02-28T05:56:36;14.63;;;4.30;;
20322;SDS011;10319;52.206;20.996;2023-02-28T05:59:04;15.27;;;4.20;;
20322;SDS011;10319;52.206;20.996;2023-02-28T06:04:01;14.77;;;4.17;;
20322;SDS011;10319;52.206;20.996;2023-02-28T06:06:27;17.67;;;4.47;;
20322;SDS011;10319;52.206;20.996;2023-02-28T06:08:52;15.23;;;4.20;;
20322;SDS011;10319;52.206;20.996;2023-02-28T06:11:21;14.23;;;4.27;;
20322;SDS011;10319;52.206;20.996;2023-02-28T06:13:53;14.10;;;4.27;;
20322;SDS011;10319;52.206;20.996;2023-02-28T06:16:18;17.60;;;5.47;;
20322;SDS011;10319;52.206;20.996;2023-02-28T06:18:43;15.07;;;4.63;;
20322;SDS011;10319;52.206;20.996;2023-02-28T06:21:08;16.77;;;4.57;;
20322;SDS011;10319;52.206;20.996;2023-02-28T06:23:34;16.53;;;4.50;;
20322;SDS011;10319;52.206;20.996;2023-02-28T06:25:59;13.80;;;3.77;;
20322;SDS011;10319;52.206;20.996;2023-02-28T06:28:25;16.07;;;4.30;;
20322;SDS011;10319;52.206;20.996;2023-02-28T06:30:50;15.07;;;4.13;;
20322;SDS011;10319;52.206;20.996;2023-02-28T06:33:17;14.70;;;4.27;;
20322;SDS011;10319;52.206;20.996;2023-02-28T06:35:44;15.93;;;4.57;;
20322;SDS011;10319;52.206;20.996;2023-02-28T06:38:09;14.93;;;4.17;;
20322;SDS011;10319;52.206;20.996;2023-02-28T06:40:35;14.63;;;3.90;;
20322;SDS011;10319;52.206;20.996;2023-02-28T06:43:01;15.77;;;3.90;;
20322;SDS011;10319;52.206;20.996;2023-02-28T06:45:26;14.33;;;4.10;;
20322;SDS011;10319;52.206;20.996;2023-02-28T06:47:51;14.50;;;4.20;;
20322;SDS011;10319;52.206;20.996;2023-02-28T06:50:17;13.47;;;4.03;;
20322;SDS011;10319;52.206;20.996;2023-02-28T06:52:45;15.83;;;4.73;;
20322;SDS011;10319;52.206;20.996;2023-02-28T06:55:10;16.73;;;4.83;;
20322;SDS011;10319;52.206;20.996;2023-02-28T06:57:36;16.10;;;4.60;;
20322;SDS011;10319;52.206;20.996;2023-02-28T07:00:06;14.73;;;4.30;;
20322;SDS011;10319;52.206;20.996;2023-02-28T07:02:32;15.93;;;4.30;;
20322;SDS011;10319;52.206;20.996;2023-02-28T07:04:57;14.57;;;4.20;;
20322;SDS011;10319;52.206;20.996;2023-02-28T07:07:23;17.50;;;4.50;;
20322;SDS011;10319;52.206;20.996;2023-02-28T07:09:48;14.47;;;4.27;;
20322;SDS011;10319;52.206;20.996;2023-02-28T07:12:13;16.60;;;4.87;;
20322;SDS011;10319;52.206;20.996;2023-02-28T07:14:38;15.70;;;4.90;;
20322;SDS011;10319;52.206;20.996;2023-02-28T07:17:04;17.47;;;5.17;;
20322;SDS011;10319;52.206;20.996;2023-02-28T07:19:31;17.03;;;4.90;;
20322;SDS011;10319;52.206;20.996;2023-02-28T07:21:59;14.83;;;4.73;;
20322;SDS011;10319;52.206;20.996;2023-02-28T07:24:26;16.43;;;4.77;;
20322;SDS011;10319;52.206;20.996;2023-02-28T07:26:53;17.43;;;4.67;;
20322;SDS011;10319;52.206;20.996;2023-02-28T07:29:18;15.83;;;5.03;;
20322;SDS011;10319;52.206;20.996;2023-02-28T07:31:43;15.93;;;4.80;;
20322;SDS011;10319;52.206;20.996;2023-02-28T07:34:09;16.40;;;5.03;;
20322;SDS011;10319;52.206;20.996;2023-02-28T07:36:40;16.10;;;5.07;;
20322;SDS011;10319;52.206;20.996;2023-02-28T07:39:05;14.80;;;4.50;;
20322;SDS011;10319;52.206;20.996;2023-02-28T07:41:31;14.23;;;4.43;;
20322;SDS011;10319;52.206;20.996;2023-02-28T07:43:59;14.70;;;4.53;;
20322;SDS011;10319;52.206;20.996;2023-02-28T07:46:24;14.20;;;3.87;;
20322;SDS011;10319;52.206;20.996;2023-02-28T07:48:52;16.30;;;4.03;;
20322;SDS011;10319;52.206;20.996;2023-02-28T07:51:21;15.13;;;3.80;;
20322;SDS011;10319;52.206;20.996;2023-02-28T07:53:49;14.73;;;4.33;;
20322;SDS011;10319;52.206;20.996;2023-02-28T07:56:22;16.00;;;4.83;;
20322;SDS011;10319;52.206;20.996;2023-02-28T07:58:48;15.57;;;4.57;;
20322;SDS011;10319;52.206;20.996;2023-02-28T08:01:13;16.00;;;4.60;;
20322;SDS011;10319;52.206;20.996;2023-02-28T08:03:39;14.87;;;4.47;;
20322;SDS011;10319;52.206;20.996;2023-02-28T08:06:05;14.93;;;4.07;;
20322;SDS011;10319;52.206;20.996;2023-02-28T08:08:31;13.73;;;3.73;;
20322;SDS011;10319;52.206;20.996;2023-02-28T08:11:00;14.87;;;3.90;;
20322;SDS011;10319;52.206;20.996;2023-02-28T08:13:26;14.63;;;4.23;;
20322;SDS011;10319;52.206;20.996;2023-02-28T08:15:52;13.27;;;4.33;;
20322;SDS011;10319;52.206;20.996;2023-02-28T08:18:17;14.00;;;4.07;;
20322;SDS011;10319;52.206;20.996;2023-02-28T08:20:43;13.50;;;3.83;;
20322;SDS011;10319;52.206;20.996;2023-02-28T08:23:08;13.33;;;4.13;;
20322;SDS011;10319;52.206;20.996;2023-02-28T08:25:33;12.90;;;3.67;;
20322;SDS011;10319;52.206;20.996;2023-02-28T08:27:58;13.93;;;4.10;;
20322;SDS011;10319;52.206;20.996;2023-02-28T08:30:24;15.93;;;4.53;;
20322;SDS011;10319;52.206;20.996;2023-02-28T08:32:49;14.30;;;3.97;;
20322;SDS011;10319;52.206;20.996;2023-02-28T08:35:14;13.23;;;3.87;;
20322;SDS011;10319;52.206;20.996;2023-02-28T08:37:39;14.30;;;4.33;;
20322;SDS011;10319;52.206;20.996;2023-02-28T08:40:05;15.03;;;4.43;;
20322;SDS011;10319;52.206;20.996;2023-02-28T08:42:31;15.57;;;5.10;;
20322;SDS011;10319;52.206;20.996;2023-02-28T08:44:57;15.73;;;4.60;;
20322;SDS011;10319;52.206;20.996;2023-02-28T08:47:22;15.17;;;4.70;;
20322;SDS011;10319;52.206;20.996;2023-02-28T08:49:47;16.80;;;4.83;;
20322;SDS011;10319;52.206;20.996;2023-02-28T08:52:12;13.97;;;4.17;;
20322;SDS011;10319;52.206;20.996;2023-02-28T08:54:38;14.50;;;4.43;;
20322;SDS011;10319;52.206;20.996;2023-02-28T08:57:03;14.67;;;4.27;;
20322;SDS011;10319;52.206;20.996;2023-02-28T08:59:29;13.17;;;3.90;;
20322;SDS011;10319;52.206;20.996;2023-02-28T09:01:54;13.87;;;4.50;;
20322;SDS011;10319;52.206;20.996;2023-02-28T09:04:19;15.73;;;4.40;;
20322;SDS011;10319;52.206;20.996;2023-02-28T09:06:44;15.33;;;4.37;;
20322;SDS011;10319;52.206;20.996;2023-02-28T09:09:10;14.33;;;4.40;;
20322;SDS011;10319;52.206;20.996;2023-02-28T09:11:35;15.70;;;4.93;;
20322;SDS011;10319;52.206;20.996;2023-02-28T09:14:01;15.93;;;4.73;;
20322;SDS011;10319;52.206;20.996;2023-02-28T09:16:28;15.17;;;4.60;;
20322;SDS011;10319;52.206;20.996;2023-02-28T09:18:53;15.00;;;4.47;;
20322;SDS011;10319;52.206;20.996;2023-02-28T09:21:18;14.37;;;4.60;;
20322;SDS011;10319;52.206;20.996;2023-02-28T09:23:45;14.93;;;4.67;;
20322;SDS011;10319;52.206;20.996;2023-02-28T09:26:14;16.10;;;5.07;;
20322;SDS011;10319;52.206;20.996;2023-02-28T09:28:40;14.87;;;4.40;;
20322;SDS011;10319;52.206;20.996;2023-02-28T09:31:05;13.97;;;4.60;;
20322;SDS011;10319;52.206;20.996;2023-02-28T09:33:30;15.33;;;4.63;;
20322;SDS011;10319;52.206;20.996;2023-02-28T09:35:59;12.90;;;4.10;;
20322;SDS011;10319;52.206;20.996;2023-02-28T09:38:25;14.80;;;3.90;;
20322;SDS011;10319;52.206;20.996;2023-02-28T09:40:55;18.67;;;5.10;;
20322;SDS011;10319;52.206;20.996;2023-02-28T09:43:22;16.50;;;4.83;;
20322;SDS011;10319;52.206;20.996;2023-02-28T09:45:51;17.53;;;5.03;;
20322;SDS011;10319;52.206;20.996;2023-02-28T09:48:19;15.17;;;5.20;;
20322;SDS011;10319;52.206;20.996;2023-02-28T09:50:52;17.43;;;4.83;;
20322;SDS011;10319;52.206;20.996;2023-02-28T09:53:28;15.20;;;4.70;;
20322;SDS011;10319;52.206;20.996;2023-02-28T09:55:58;14.50;;;4.70;;
20322;SDS011;10319;52.206;20.996;2023-02-28T10:00:54;14.57;;;4.60;;
20322;SDS011;10319;52.206;20.996;2023-02-28T10:06:08;15.60;;;4.70;;
20322;SDS011;10319;52.206;20.996;2023-02-28T10:11:21;15.43;;;4.60;;
20322;SDS011;10319;52.206;20.996;2023-02-28T10:18:57;14.87;;;4.60;;
20322;SDS011;10319;52.206;20.996;2023-02-28T10:21:35;14.07;;;4.77;;
20322;SDS011;10319;52.206;20.996;2023-02-28T10:26:45;17.23;;;4.93;;
20322;SDS011;10319;52.206;20.996;2023-02-28T10:29:12;15.43;;;4.57;;
20322;SDS011;10319;52.206;20.996;2023-02-28T10:31:37;15.63;;;5.40;;
20322;SDS011;10319;52.206;20.996;2023-02-28T10:34:03;16.17;;;5.30;;
20322;SDS011;10319;52.206;20.996;2023-02-28T10:36:31;17.47;;;5.50;;
20322;SDS011;10319;52.206;20.996;2023-02-28T10:38:56;15.37;;;5.03;;
20322;SDS011;10319;52.206;20.996;2023-02-28T10:41:29;15.03;;;5.13;;
20322;SDS011;10319;52.206;20.996;2023-02-28T10:44:13;15.43;;;4.87;;
20322;SDS011;10319;52.206;20.996;2023-02-28T10:46:39;15.37;;;5.17;;
20322;SDS011;10319;52.206;20.996;2023-02-28T10:49:05;18.77;;;5.80;;
20322;SDS011;10319;52.206;20.996;2023-02-28T10:51:36;16.47;;;5.90;;
20322;SDS011;10319;52.206;20.996;2023-02-28T10:54:02;15.37;;;5.17;;
20322;SDS011;10319;52.206;20.996;2023-02-28T10:56:33;18.47;;;5.73;;
20322;SDS011;10319;52.206;20.996;2023-02-28T10:59:03;15.60;;;5.40;;
20322;SDS011;10319;52.206;20.996;2023-02-28T11:01:44;18.40;;;5.60;;
20322;SDS011;10319;52.206;20.996;2023-02-28T11:06:59;17.30;;;5.70;;
20322;SDS011;10319;52.206;20.996;2023-02-28T11:09:28;15.30;;;5.20;;
20322;SDS011;10319;52.206;20.996;2023-02-28T11:11:56;18.07;;;5.80;;
20322;SDS011;10319;52.206;20.996;2023-02-28T11:14:24;18.67;;;5.90;;
20322;SDS011;10319;52.206;20.996;2023-02-28T11:16:50;15.03;;;5.30;;
20322;SDS011;10319;52.206;20.996;2023-02-28T11:19:35;14.97;;;4.90;;
20322;SDS011;10319;52.206;20.996;2023-02-28T11:22:03;16.17;;;5.83;;
20322;SDS011;10319;52.206;20.996;2023-02-28T11:26:55;14.77;;;5.37;;
20322;SDS011;10319;52.206;20.996;2023-02-28T11:29:21;17.73;;;6.00;;
20322;SDS011;10319;52.206;20.996;2023-02-28T11:34:27;18.17;;;6.17;;
20322;SDS011;10319;52.206;20.996;2023-02-28T11:36:56;16.37;;;5.83;;
20322;SDS011;10319;52.206;20.996;2023-02-28T11:39:21;17.80;;;6.20;;
20322;SDS011;10319;52.206;20.996;2023-02-28T11:41:54;17.43;;;6.23;;
20322;SDS011;10319;52.206;20.996;2023-02-28T11:44:43;16.00;;;4.97;;
20322;SDS011;10319;52.206;20.996;2023-02-28T11:50:04;22.07;;;6.30;;
20322;SDS011;10319;52.206;20.996;2023-02-28T11:59:52;15.03;;;5.47;;
20322;SDS011;10319;52.206;20.996;2023-02-28T12:02:25;17.00;;;5.77;;
20322;SDS011;10319;52.206;20.996;2023-02-28T12:05:08;16.70;;;5.73;;
20322;SDS011;10319;52.206;20.996;2023-02-28T12:10:46;19.03;;;6.63;;
20322;SDS011;10319;52.206;20.996;2023-02-28T12:15:27;16.27;;;5.40;;
20322;SDS011;10319;52.206;20.996;2023-02-28T12:23:31;14.63;;;5.40;;
20322;SDS011;10319;52.206;20.996;2023-02-28T12:28:54;17.53;;;5.93;;
20322;SDS011;10319;52.206;20.996;2023-02-28T12:31:24;17.27;;;5.43;;
20322;SDS011;10319;52.206;20.996;2023-02-28T12:33:53;16.17;;;6.17;;
20322;SDS011;10319;52.206;20.996;2023-02-28T12:36:21;14.30;;;4.83;;
20322;SDS011;10319;52.206;20.996;2023-02-28T12:38:51;15.50;;;5.47;;
20322;SDS011;10319;52.206;20.996;2023-02-28T12:43:48;16.23;;;5.23;;
20322;SDS011;10319;52.206;20.996;2023-02-28T12:46:19;15.50;;;5.07;;
20322;SDS011;10319;52.206;20.996;2023-02-28T12:48:47;14.63;;;5.10;;
20322;SDS011;10319;52.206;20.996;2023-02-28T12:51:14;14.33;;;4.80;;
20322;SDS011;10319;52.206;20.996;2023-02-28T12:54:01;14.50;;;5.10;;
20322;SDS011;10319;52.206;20.996;2023-02-28T12:56:52;16.67;;;5.00;;
20322;SDS011;10319;52.206;20.996;2023-02-28T12:59:33;14.17;;;5.10;;
20322;SDS011;10319;52.206;20.996;2023-02-28T13:02:09;14.40;;;5.07;;
20322;SDS011;10319;52.206;20.996;2023-02-28T13:04:47;14.70;;;4.80;;
20322;SDS011;10319;52.206;20.996;2023-02-28T13:10:03;14.63;;;4.80;;
20322;SDS011;10319;52.206;20.996;2023-02-28T13:12:29;14.20;;;4.87;;
20322;SDS011;10319;52.206;20.996;2023-02-28T13:15:02;15.37;;;5.27;;
20322;SDS011;10319;52.206;20.996;2023-02-28T13:17:29;14.70;;;5.23;;
20322;SDS011;10319;52.206;20.996;2023-02-28T13:27:24;15.60;;;5.73;;
20322;SDS011;10319;52.206;20.996;2023-02-28T13:29:59;13.77;;;5.10;;
20322;SDS011;10319;52.206;20.996;2023-02-28T13:39:54;15.70;;;5.83;;
20322;SDS011;10319;52.206;20.996;2023-02-28T13:47:41;16.17;;;5.50;;
20322;SDS011;10319;52.206;20.996;2023-02-28T13:52:43;15.93;;;5.73;;
20322;SDS011;10319;52.206;20.996;2023-02-28T14:05:39;16.80;;;5.70;;
20322;SDS011;10319;52.206;20.996;2023-02-28T14:08:32;16.30;;;5.80;;
20322;SDS011;10319;52.206;20.996;2023-02-28T14:11:22;17.33;;;5.77;;
20322;SDS011;10319;52.206;20.996;2023-02-28T14:13:48;15.63;;;5.23;;
20322;SDS011;10319;52.206;20.996;2023-02-28T14:16:14;16.80;;;6.17;;
20322;SDS011;10319;52.206;20.996;2023-02-28T14:18:56;14.40;;;4.90;;
20322;SDS011;10319;52.206;20.996;2023-02-28T14:21:29;14.73;;;5.50;;
20322;SDS011;10319;52.206;20.996;2023-02-28T14:26:55;16.10;;;5.30;;
20322;SDS011;10319;52.206;20.996;2023-02-28T14:32:15;16.87;;;5.40;;
20322;SDS011;10319;52.206;20.996;2023-02-28T14:35:12;17.13;;;5.37;;
20322;SDS011;10319;52.206;20.996;2023-02-28T14:37:31;14.57;;;5.03;;
20322;SDS011;10319;52.206;20.996;2023-02-28T14:40:00;13.73;;;4.60;;
20322;SDS011;10319;52.206;20.996;2023-02-28T14:42:29;18.83;;;5.87;;
20322;SDS011;10319;52.206;20.996;2023-02-28T14:44:57;16.33;;;5.17;;
20322;SDS011;10319;52.206;20.996;2023-02-28T14:47:23;15.67;;;5.10;;
20322;SDS011;10319;52.206;20.996;2023-02-28T14:49:52;15.93;;;4.53;;
20322;SDS011;10319;52.206;20.996;2023-02-28T14:52:24;16.70;;;5.20;;
20322;SDS011;10319;52.206;20.996;2023-02-28T14:54:54;17.73;;;5.63;;
20322;SDS011;10319;52.206;20.996;2023-02-28T14:57:58;17.37;;;5.60;;
20322;SDS011;10319;52.206;20.996;2023-02-28T15:00:27;19.17;;;5.20;;
20322;SDS011;10319;52.206;20.996;2023-02-28T15:02:54;14.43;;;4.53;;
20322;SDS011;10319;52.206;20.996;2023-02-28T15:05:22;16.13;;;5.03;;
20322;SDS011;10319;52.206;20.996;2023-02-28T15:07:48;15.87;;;5.10;;
20322;SDS011;10319;52.206;20.996;2023-02-28T15:10:17;16.17;;;5.03;;
20322;SDS011;10319;52.206;20.996;2023-02-28T15:12:45;15.33;;;4.80;;
20322;SDS011;10319;52.206;20.996;2023-02-28T15:15:16;16.27;;;5.23;;
20322;SDS011;10319;52.206;20.996;2023-02-28T15:17:51;16.87;;;5.37;;
20322;SDS011;10319;52.206;20.996;2023-02-28T15:20:18;14.97;;;4.67;;
20322;SDS011;10319;52.206;20.996;2023-02-28T15:22:44;16.60;;;4.80;;
20322;SDS011;10319;52.206;20.996;2023-02-28T15:25:11;15.27;;;5.00;;
20322;SDS011;10319;52.206;20.996;2023-02-28T15:27:41;14.47;;;4.63;;
20322;SDS011;10319;52.206;20.996;2023-02-28T15:30:08;14.97;;;4.63;;
20322;SDS011;10319;52.206;20.996;2023-02-28T15:32:34;14.37;;;4.90;;
20322;SDS011;10319;52.206;20.996;2023-02-28T15:35:17;16.37;;;5.00;;
20322;SDS011;10319;52.206;20.996;2023-02-28T15:37:47;17.27;;;5.40;;
20322;SDS011;10319;52.206;20.996;2023-02-28T15:42:38;16.57;;;5.30;;
20322;SDS011;10319;52.206;20.996;2023-02-28T15:45:04;16.20;;;5.13;;
20322;SDS011;10319;52.206;20.996;2023-02-28T15:47:29;16.73;;;5.07;;
20322;SDS011;10319;52.206;20.996;2023-02-28T15:52:24;14.57;;;4.50;;
20322;SDS011;10319;52.206;20.996;2023-02-28T15:54:51;18.50;;;5.33;;
20322;SDS011;10319;52.206;20.996;2023-02-28T15:57:24;17.43;;;5.20;;
20322;SDS011;10319;52.206;20.996;2023-02-28T16:00:00;16.93;;;5.53;;
20322;SDS011;10319;52.206;20.996;2023-02-28T16:02:30;18.00;;;5.77;;
20322;SDS011;10319;52.206;20.996;2023-02-28T16:04:57;15.90;;;5.30;;
20322;SDS011;10319;52.206;20.996;2023-02-28T16:07:22;17.43;;;5.80;;
20322;SDS011;10319;52.206;20.996;2023-02-28T16:09:49;18.73;;;6.20;;
20322;SDS011;10319;52.206;20.996;2023-02-28T16:12:14;18.47;;;5.43;;
20322;SDS011;10319;52.206;20.996;2023-02-28T16:14:39;17.60;;;5.77;;
20322;SDS011;10319;52.206;20.996;2023-02-28T16:17:06;17.00;;;5.20;;
20322;SDS011;10319;52.206;20.996;2023-02-28T16:19:33;15.97;;;5.00;;
20322;SDS011;10319;52.206;20.996;2023-02-28T16:21:59;16.03;;;5.40;;
20322;SDS011;10319;52.206;20.996;2023-02-28T16:24:24;19.77;;;5.83;;
20322;SDS011;10319;52.206;20.996;2023-02-28T16:26:50;18.37;;;6.17;;
20322;SDS011;10319;52.206;20.996;2023-02-28T16:29:27;19.00;;;6.33;;
20322;SDS011;10319;52.206;20.996;2023-02-28T16:31:53;18.60;;;6.90;;
20322;SDS011;10319;52.206;20.996;2023-02-28T16:34:19;20.43;;;6.87;;
20322;SDS011;10319;52.206;20.996;2023-02-28T16:36:46;18.90;;;7.00;;
20322;SDS011;10319;52.206;20.996;2023-02-28T16:39:11;18.77;;;6.43;;